createdAt,value
2018-02-11T00:00:55.356Z,1.4
2018-02-11T00:01:54.824Z,1.4
2018-02-11T00:02:55.254Z,1.39
2018-02-11T00:03:53.579Z,1.38
2018-02-11T00:04:53.691Z,1.4
2018-02-11T00:05:54.260Z,1.33
2018-02-11T00:06:54.423Z,1.32
2018-02-11T00:07:54.326Z,1.35
2018-02-11T00:08:54.160Z,1.29
2018-02-11T00:09:54.242Z,1.33
2018-02-11T00:10:54.895Z,1.22
2018-02-11T00:11:54.679Z,1.24
2018-02-11T00:12:54.972Z,1.21
2018-02-11T00:13:54.884Z,1.32
2018-02-11T00:14:55.289Z,1.18
2018-02-11T00:15:55.065Z,1.24
2018-02-11T00:16:55.451Z,1.2
2018-02-11T00:17:55.395Z,1.22
2018-02-11T00:18:55.659Z,1.26
2018-02-11T00:19:55.872Z,1.22
2018-02-11T00:20:55.838Z,1.08
2018-02-11T00:21:56.302Z,1.12
2018-02-11T00:22:56.049Z,1.12
2018-02-11T00:23:56.363Z,1.12
2018-02-11T00:24:56.361Z,1.2
2018-02-11T00:25:56.143Z,1.18
2018-02-11T00:26:56.626Z,1.17
2018-02-11T00:27:56.645Z,1.15
2018-02-11T00:28:56.556Z,1.22
2018-02-11T00:29:56.711Z,1.2
2018-02-11T00:30:56.482Z,1.14
2018-02-11T00:31:56.755Z,1.14
2018-02-11T00:32:56.864Z,1.14
2018-02-11T00:33:57.267Z,1.26
2018-02-11T00:34:57.925Z,1.17
2018-02-11T00:35:58.124Z,1.28
2018-02-11T00:36:57.825Z,1.24
2018-02-11T00:37:57.742Z,1.2
2018-02-11T00:38:58.091Z,1.21
2018-02-11T00:39:57.828Z,1.24
2018-02-11T00:40:58.103Z,1.21
2018-02-11T00:41:57.903Z,1.28
2018-02-11T00:42:57.629Z,1.32
2018-02-11T00:43:58.439Z,1.29
2018-02-11T00:44:57.947Z,1.35
2018-02-11T00:45:58.793Z,1.26
2018-02-11T00:46:58.824Z,1.35
2018-02-11T00:47:58.484Z,1.32
2018-02-11T00:48:58.957Z,1.42
2018-02-11T00:49:58.600Z,1.35
2018-02-11T00:50:58.559Z,1.42
2018-02-11T00:51:58.708Z,1.36
2018-02-11T00:52:59.971Z,1.29
2018-02-11T00:53:59.495Z,1.2
2018-02-11T00:54:59.430Z,1.24
2018-02-11T00:55:59.836Z,1.17
2018-02-11T00:57:00.032Z,1.18
2018-02-11T00:58:00.024Z,1.08
2018-02-11T00:59:01.136Z,1.08
2018-02-11T01:00:01.058Z,1.1
2018-02-11T01:01:00.382Z,1.11
2018-02-11T01:02:01.335Z,1.07
2018-02-11T01:03:00.890Z,1.1
2018-02-11T01:04:01.785Z,1.12
2018-02-11T01:05:01.430Z,1.07
2018-02-11T01:06:01.223Z,1.1
2018-02-11T01:07:01.190Z,1.14
2018-02-11T01:08:01.993Z,1.03
2018-02-11T01:09:02.343Z,1.12
2018-02-11T01:10:03.652Z,1.15
2018-02-11T01:11:02.774Z,1.26
2018-02-11T01:12:03.344Z,1.21
2018-02-11T01:13:03.759Z,1.17
2018-02-11T01:14:03.742Z,1.29
2018-02-11T01:15:04.489Z,1.21
2018-02-11T01:16:04.177Z,1.3
2018-02-11T01:17:03.958Z,1.28
2018-02-11T01:18:04.108Z,1.21
2018-02-11T01:19:04.799Z,1.24
2018-02-11T01:20:04.908Z,1.29
2018-02-11T01:21:06.522Z,1.26
2018-02-11T01:22:05.968Z,1.26
2018-02-11T01:23:06.089Z,1.29
2018-02-11T01:24:05.507Z,1.2
2018-02-11T01:25:05.900Z,1.2
2018-02-11T01:26:06.798Z,1.2
2018-02-11T01:27:05.606Z,1.2
2018-02-11T01:28:07.092Z,1.2
2018-02-11T01:29:06.299Z,1.07
2018-02-11T01:30:15.205Z,0.99
2018-02-11T01:31:15.379Z,0.85
2018-02-11T01:32:15.782Z,0.76
2018-02-11T01:33:15.803Z,0.75
2018-02-11T01:34:15.829Z,0.69
2018-02-11T01:35:15.704Z,0.6
2018-02-11T01:36:16.240Z,0.69
2018-02-11T01:37:15.969Z,0.6
2018-02-11T01:38:15.834Z,0.67
2018-02-11T01:39:16.384Z,0.69
2018-02-11T01:40:16.391Z,0.81
2018-02-11T01:41:16.519Z,0.72
2018-02-11T01:42:16.943Z,0.74
2018-02-11T01:43:17.001Z,0.78
2018-02-11T01:44:17.009Z,0.67
2018-02-11T01:45:16.913Z,0.85
2018-02-11T01:46:17.578Z,0.78
2018-02-11T01:47:17.733Z,0.74
2018-02-11T01:48:17.457Z,0.63
2018-02-11T01:49:17.640Z,0.61
2018-02-11T01:50:17.634Z,0.67
2018-02-11T01:51:18.190Z,0.58
2018-02-11T01:52:17.977Z,0.64
2018-02-11T01:53:18.254Z,0.63
2018-02-11T01:54:17.748Z,0.69
2018-02-11T01:55:18.179Z,0.67
2018-02-11T01:56:18.385Z,0.66
2018-02-11T01:57:18.773Z,0.61
2018-02-11T01:58:18.899Z,0.69
2018-02-11T01:59:18.984Z,0.76
2018-02-11T02:00:19.105Z,0.76
2018-02-11T02:01:19.548Z,0.76
2018-02-11T02:02:19.290Z,0.75
2018-02-11T02:03:19.786Z,0.81
2018-02-11T02:04:19.796Z,0.85
2018-02-11T02:05:19.550Z,0.86
2018-02-11T02:06:19.961Z,0.89
2018-02-11T02:07:19.956Z,0.94
2018-02-11T02:08:19.703Z,0.94
2018-02-11T02:09:20.095Z,0.97
2018-02-11T02:10:20.251Z,0.96
2018-02-11T02:11:20.396Z,0.96
2018-02-11T02:12:20.698Z,1
2018-02-11T02:13:21.091Z,1
2018-02-11T02:14:21.146Z,1
2018-02-11T02:15:21.118Z,1.02
2018-02-11T02:16:21.214Z,1.08
2018-02-11T02:17:21.864Z,1
2018-02-11T02:18:21.663Z,1.07
2018-02-11T02:19:21.936Z,1.02
2018-02-11T02:20:21.654Z,1.1
2018-02-11T02:21:21.410Z,1.11
2018-02-11T02:22:21.921Z,1.02
2018-02-11T02:23:22.072Z,1.07
2018-02-11T02:24:22.257Z,1.08
2018-02-11T02:25:22.377Z,1.07
2018-02-11T02:26:22.765Z,1
2018-02-11T02:27:22.920Z,1.04
2018-02-11T02:28:22.748Z,1.08
2018-02-11T02:29:22.818Z,1.07
2018-02-11T02:30:22.925Z,1.07
2018-02-11T02:31:23.257Z,0.99
2018-02-11T02:32:23.397Z,1.1
2018-02-11T02:33:23.703Z,1.11
2018-02-11T02:34:23.705Z,1.1
2018-02-11T02:35:23.587Z,1.15
2018-02-11T02:36:24.085Z,1.07
2018-02-11T02:37:24.494Z,1.07
2018-02-11T02:38:24.753Z,1.08
2018-02-11T02:39:24.806Z,0.99
2018-02-11T02:40:24.871Z,1
2018-02-11T02:41:24.879Z,0.93
2018-02-11T02:42:24.567Z,0.92
2018-02-11T02:43:24.730Z,0.82
2018-02-11T02:44:25.106Z,0.76
2018-02-11T02:45:24.861Z,0.75
2018-02-11T02:46:25.132Z,0.69
2018-02-11T02:47:25.171Z,0.76
2018-02-11T02:48:25.667Z,0.71
2018-02-11T02:49:25.815Z,0.69
2018-02-11T02:50:25.511Z,0.6
2018-02-11T02:51:25.728Z,0.66
2018-02-11T02:52:25.508Z,0.69
2018-02-11T02:53:25.726Z,0.61
2018-02-11T02:54:25.501Z,0.69
2018-02-11T02:55:26.016Z,0.61
2018-02-11T02:56:26.036Z,0.69
2018-02-11T02:57:26.266Z,0.67
2018-02-11T02:58:26.526Z,0.72
2018-02-11T02:59:26.782Z,0.67
2018-02-11T03:00:26.490Z,0.63
2018-02-11T03:01:27.933Z,0.66
2018-02-11T03:02:27.260Z,0.61
2018-02-11T03:03:27.078Z,0.66
2018-02-11T03:04:27.372Z,0.63
2018-02-11T03:05:27.081Z,0.69
2018-02-11T03:06:27.460Z,0.66
2018-02-11T03:07:27.858Z,0.64
2018-02-11T03:08:28.162Z,0.64
2018-02-11T03:09:28.063Z,0.72
2018-02-11T03:10:27.891Z,0.67
2018-02-11T03:11:28.121Z,0.72
2018-02-11T03:12:28.582Z,0.71
2018-02-11T03:13:28.608Z,0.72
2018-02-11T03:14:28.836Z,0.81
2018-02-11T03:15:28.976Z,0.69
2018-02-11T03:16:28.713Z,0.74
2018-02-11T03:17:29.296Z,0.74
2018-02-11T03:18:28.921Z,0.75
2018-02-11T03:19:29.086Z,0.81
2018-02-11T03:20:29.171Z,0.81
2018-02-11T03:21:29.027Z,0.89
2018-02-11T03:22:29.234Z,0.82
2018-02-11T03:23:29.834Z,0.86
2018-02-11T03:24:29.303Z,0.9
2018-02-11T03:25:29.520Z,0.84
2018-02-11T03:26:29.649Z,0.84
2018-02-11T03:27:29.313Z,0.9
2018-02-11T03:28:30.091Z,0.86
2018-02-11T03:29:29.357Z,0.82
2018-02-11T03:30:29.533Z,0.85
2018-02-11T03:31:30.033Z,0.81
2018-02-11T03:32:29.480Z,0.78
2018-02-11T03:33:29.089Z,0.78
2018-02-11T03:34:29.672Z,0.81
2018-02-11T03:35:29.706Z,0.72
2018-02-11T03:36:29.456Z,0.84
2018-02-11T03:37:29.512Z,0.78
2018-02-11T03:38:29.828Z,0.78
2018-02-11T03:39:30.756Z,0.71
2018-02-11T03:40:30.593Z,0.76
2018-02-11T03:41:29.632Z,0.74
2018-02-11T03:42:29.704Z,0.75
2018-02-11T03:43:29.942Z,0.71
2018-02-11T03:44:30.426Z,0.64
2018-02-11T03:45:30.884Z,0.69
2018-02-11T03:46:30.956Z,0.56
2018-02-11T03:47:31.318Z,0.56
2018-02-11T03:48:30.735Z,0.53
2018-02-11T03:49:30.897Z,0.41
2018-02-11T03:50:31.504Z,0.52
2018-02-11T03:51:30.461Z,0.37
2018-02-11T03:52:30.508Z,0.31
2018-02-11T03:53:31.163Z,0.37
2018-02-11T03:54:30.837Z,0.27
2018-02-11T03:55:31.525Z,0.23
2018-02-11T03:56:31.479Z,0.27
2018-02-11T03:57:31.100Z,0.23
2018-02-11T03:58:31.434Z,0.2
2018-02-11T03:59:31.471Z,0.16
2018-02-11T04:00:31.363Z,0.1
2018-02-11T04:01:31.487Z,0.16
2018-02-11T04:02:31.819Z,0.17
2018-02-11T04:03:31.703Z,0.06
2018-02-11T04:04:31.638Z,0.13
2018-02-11T04:05:31.908Z,0.16
2018-02-11T04:06:31.844Z,0.24
2018-02-11T04:07:32.112Z,0.26
2018-02-11T04:08:32.284Z,0.23
2018-02-11T04:09:33.103Z,0.31
2018-02-11T04:10:32.775Z,0.27
2018-02-11T04:11:32.757Z,0.32
2018-02-11T04:12:32.919Z,0.35
2018-02-11T04:13:32.975Z,0.37
2018-02-11T04:14:32.954Z,0.34
2018-02-11T04:15:32.985Z,0.35
2018-02-11T04:16:33.376Z,0.52
2018-02-11T04:17:33.727Z,0.45
2018-02-11T04:18:33.833Z,0.47
2018-02-11T04:19:34.763Z,0.44
2018-02-11T04:20:34.726Z,0.58
2018-02-11T04:21:34.288Z,0.56
2018-02-11T04:22:34.675Z,0.56
2018-02-11T04:23:34.270Z,0.56
2018-02-11T04:24:34.782Z,0.69
2018-02-11T04:25:35.178Z,0.69
2018-02-11T04:26:35.006Z,0.63
2018-02-11T04:27:35.212Z,0.63
2018-02-11T04:28:35.379Z,0.69
2018-02-11T04:29:35.077Z,0.57
2018-02-11T04:30:35.444Z,0.71
2018-02-11T04:31:35.417Z,0.64
2018-02-11T04:32:36.242Z,0.71
2018-02-11T04:33:35.591Z,0.58
2018-02-11T04:34:35.570Z,0.69
2018-02-11T04:35:35.586Z,0.79
2018-02-11T04:36:35.323Z,0.76
2018-02-11T04:37:36.781Z,0.72
2018-02-11T04:38:36.177Z,0.74
2018-02-11T04:39:35.851Z,0.74
2018-02-11T04:40:35.824Z,0.85
2018-02-11T04:41:35.775Z,0.85
2018-02-11T04:42:35.821Z,0.89
2018-02-11T04:43:35.798Z,0.84
2018-02-11T04:44:35.700Z,0.86
2018-02-11T04:45:36.286Z,0.9
2018-02-11T04:46:36.090Z,0.82
2018-02-11T04:47:36.710Z,0.92
2018-02-11T04:48:36.262Z,0.82
2018-02-11T04:49:36.025Z,0.86
2018-02-11T04:50:36.832Z,0.86
2018-02-11T04:51:36.800Z,0.82
2018-02-11T04:52:36.606Z,0.86
2018-02-11T04:53:37.276Z,0.92
2018-02-11T04:54:37.146Z,0.9
2018-02-11T04:55:37.111Z,0.85
2018-02-11T04:56:37.880Z,0.9
2018-02-11T04:57:37.955Z,0.86
2018-02-11T04:58:36.754Z,0.93
2018-02-11T04:59:36.820Z,0.9
2018-02-11T05:00:37.040Z,0.92
2018-02-11T05:01:36.937Z,0.94
2018-02-11T05:02:37.218Z,0.97
2018-02-11T05:03:36.970Z,1.04
2018-02-11T05:04:36.853Z,1.04
2018-02-11T05:05:37.206Z,1.02
2018-02-11T05:06:37.015Z,1.04
2018-02-11T05:07:37.632Z,1.02
2018-02-11T05:08:38.015Z,1
2018-02-11T05:09:38.089Z,1.1
2018-02-11T05:10:38.261Z,1.08
2018-02-11T05:11:37.949Z,1.14
2018-02-11T05:12:38.474Z,1.04
2018-02-11T05:13:38.472Z,1.12
2018-02-11T05:14:38.408Z,1.04
2018-02-11T05:15:38.884Z,1.18
2018-02-11T05:16:38.690Z,1.15
2018-02-11T05:17:38.475Z,1.12
2018-02-11T05:18:38.678Z,1.12
2018-02-11T05:19:38.762Z,1.15
2018-02-11T05:20:39.485Z,1.1
2018-02-11T05:21:39.395Z,1.08
2018-02-11T05:22:40.192Z,1.1
2018-02-11T05:23:39.586Z,1.04
2018-02-11T05:24:39.579Z,1.11
2018-02-11T05:25:40.010Z,1.12
2018-02-11T05:26:39.601Z,1.08
2018-02-11T05:27:40.067Z,1.08
2018-02-11T05:28:40.196Z,1.04
2018-02-11T05:29:40.496Z,1.07
2018-02-11T05:30:41.568Z,1.03
2018-02-11T05:31:39.971Z,1.1
2018-02-11T05:32:40.455Z,1.11
2018-02-11T05:33:40.312Z,1.12
2018-02-11T05:34:40.750Z,1.08
2018-02-11T05:35:40.418Z,1.07
2018-02-11T05:36:40.502Z,1.04
2018-02-11T05:37:40.924Z,1.03
2018-02-11T05:38:40.753Z,1.15
2018-02-11T05:39:40.958Z,1.08
2018-02-11T05:40:40.984Z,1.1
2018-02-11T05:41:41.574Z,1.11
2018-02-11T05:42:41.462Z,1.1
2018-02-11T05:43:41.662Z,1.08
2018-02-11T05:44:41.829Z,1.04
2018-02-11T05:45:41.831Z,1.08
2018-02-11T05:46:42.265Z,1.11
2018-02-11T05:47:42.182Z,1.04
2018-02-11T05:48:42.355Z,1.03
2018-02-11T05:49:42.375Z,1.18
2018-02-11T05:50:42.358Z,1.17
2018-02-11T05:51:42.686Z,1.21
2018-02-11T05:52:42.199Z,1.24
2018-02-11T05:53:42.703Z,1.21
2018-02-11T05:54:43.251Z,1.2
2018-02-11T05:55:43.168Z,1.14
2018-02-11T05:56:43.579Z,1.2
2018-02-11T05:57:43.692Z,1.26
2018-02-11T05:58:43.926Z,1.26
2018-02-11T05:59:43.671Z,1.33
2018-02-11T06:00:43.720Z,1.29
2018-02-11T06:01:44.042Z,1.32
2018-02-11T06:02:44.786Z,1.24
2018-02-11T06:03:44.554Z,1.24
2018-02-11T06:04:44.776Z,1.33
2018-02-11T06:05:44.820Z,1.38
2018-02-11T06:06:45.300Z,1.32
2018-02-11T06:07:45.303Z,1.32
2018-02-11T06:08:45.086Z,1.32
2018-02-11T06:09:45.543Z,1.33
2018-02-11T06:10:45.934Z,1.39
2018-02-11T06:11:45.825Z,1.4
2018-02-11T06:12:45.983Z,1.4
2018-02-11T06:13:46.105Z,1.4
2018-02-11T06:14:46.227Z,1.44
2018-02-11T06:15:45.882Z,1.38
2018-02-11T06:16:46.549Z,1.44
2018-02-11T06:17:46.912Z,1.46
2018-02-11T06:18:46.948Z,1.42
2018-02-11T06:19:47.802Z,1.47
2018-02-11T06:20:47.508Z,1.51
2018-02-11T06:21:47.860Z,1.44
2018-02-11T06:22:47.597Z,1.51
2018-02-11T06:23:48.229Z,1.39
2018-02-11T06:24:47.939Z,1.42
2018-02-11T06:25:47.944Z,1.4
2018-02-11T06:26:48.118Z,1.46
2018-02-11T06:27:48.514Z,1.5
2018-02-11T06:28:48.307Z,1.42
2018-02-11T06:29:48.309Z,1.5
2018-02-11T06:30:48.959Z,1.39
2018-02-11T06:31:48.460Z,1.4
2018-02-11T06:32:48.964Z,1.5
2018-02-11T06:33:48.747Z,1.4
2018-02-11T06:34:49.116Z,1.39
2018-02-11T06:35:49.784Z,1.38
2018-02-11T06:36:50.363Z,1.33
2018-02-11T06:37:49.608Z,1.26
2018-02-11T06:38:49.937Z,1.28
2018-02-11T06:39:49.988Z,1.24
2018-02-11T06:40:49.982Z,1.24
2018-02-11T06:41:50.379Z,1.15
2018-02-11T06:42:50.886Z,1.03
2018-02-11T06:43:50.630Z,1.07
2018-02-11T06:44:50.489Z,1.08
2018-02-11T06:45:51.410Z,1.1
2018-02-11T06:46:51.037Z,1.03
2018-02-11T06:47:50.870Z,1.08
2018-02-11T06:48:51.096Z,1.07
2018-02-11T06:49:51.115Z,0.99
2018-02-11T06:50:50.979Z,0.92
2018-02-11T06:51:51.555Z,1.02
2018-02-11T06:52:51.576Z,1.02
2018-02-11T06:53:51.717Z,1.04
2018-02-11T06:54:51.733Z,1.11
2018-02-11T06:55:52.104Z,1.07
2018-02-11T06:56:52.507Z,1.07
2018-02-11T06:57:51.955Z,1.11
2018-02-11T06:58:52.634Z,1.1
2018-02-11T06:59:53.064Z,1.22
2018-02-11T07:00:53.320Z,1.22
2018-02-11T07:01:53.468Z,1.22
2018-02-11T07:02:53.388Z,1.29
2018-02-11T07:03:52.937Z,1.35
2018-02-11T07:04:52.972Z,1.4
2018-02-11T07:05:53.249Z,1.35
2018-02-11T07:06:53.632Z,1.38
2018-02-11T07:07:54.026Z,1.46
2018-02-11T07:08:53.786Z,1.48
2018-02-11T07:09:54.065Z,1.53
2018-02-11T07:10:54.078Z,1.56
2018-02-11T07:11:53.885Z,1.68
2018-02-11T07:12:54.200Z,1.71
2018-02-11T07:13:54.375Z,1.82
2018-02-11T07:14:54.211Z,1.87
2018-02-11T07:15:54.349Z,1.92
2018-02-11T07:16:54.775Z,1.93
2018-02-11T07:17:55.059Z,1.92
2018-02-11T07:18:55.200Z,2.08
2018-02-11T07:19:54.878Z,2.13
2018-02-11T07:20:55.134Z,2.04
2018-02-11T07:21:54.878Z,2.26
2018-02-11T07:22:55.250Z,2.16
2018-02-11T07:23:55.680Z,2.24
2018-02-11T07:24:55.687Z,2.26
2018-02-11T07:25:56.065Z,2.26
2018-02-11T07:26:55.991Z,2.33
2018-02-11T07:27:56.131Z,2.33
2018-02-11T07:28:55.736Z,2.26
2018-02-11T07:29:56.107Z,2.33
2018-02-11T07:30:56.229Z,2.36
2018-02-11T07:31:56.411Z,2.34
2018-02-11T07:32:56.368Z,2.34
2018-02-11T07:33:56.610Z,2.34
2018-02-11T07:34:56.766Z,2.26
2018-02-11T07:35:56.592Z,2.27
2018-02-11T07:36:56.376Z,2.33
2018-02-11T07:37:56.831Z,2.26
2018-02-11T07:38:57.817Z,2.27
2018-02-11T07:39:57.483Z,2.26
2018-02-11T07:40:57.332Z,2.16
2018-02-11T07:41:57.600Z,2.2
2018-02-11T07:42:58.261Z,2.09
2018-02-11T07:43:58.451Z,2.12
2018-02-11T07:44:58.640Z,2.11
2018-02-11T07:45:58.887Z,2.06
2018-02-11T07:46:59.155Z,2.11
2018-02-11T07:47:59.569Z,1.94
2018-02-11T07:48:59.590Z,2.01
2018-02-11T07:49:59.712Z,2.05
2018-02-11T07:50:59.748Z,2.05
2018-02-11T07:51:59.748Z,2.08
2018-02-11T07:52:59.897Z,2.12
2018-02-11T07:53:59.651Z,2.12
2018-02-11T07:54:59.944Z,2.22
2018-02-11T07:55:59.708Z,2.26
2018-02-11T07:57:00.616Z,2.26
2018-02-11T07:58:00.197Z,2.23
2018-02-11T07:59:00.690Z,2.24
2018-02-11T08:00:00.494Z,2.24
2018-02-11T08:01:00.535Z,2.3
2018-02-11T08:02:00.504Z,2.23
2018-02-11T08:03:01.181Z,2.2
2018-02-11T08:04:01.334Z,2.15
2018-02-11T08:05:02.061Z,2.11
2018-02-11T08:06:02.062Z,2.08
2018-02-11T08:07:02.079Z,2.05
2018-02-11T08:08:02.308Z,2.08
2018-02-11T08:09:02.682Z,2.06
2018-02-11T08:10:02.702Z,1.87
2018-02-11T08:11:02.580Z,1.9
2018-02-11T08:12:03.393Z,1.94
2018-02-11T08:13:03.820Z,2.01
2018-02-11T08:14:03.342Z,2.08
2018-02-11T08:15:03.491Z,2.15
2018-02-11T08:16:03.363Z,2.27
2018-02-11T08:17:03.116Z,2.34
2018-02-11T08:18:03.190Z,2.42
2018-02-11T08:19:03.153Z,2.6
2018-02-11T08:20:03.477Z,2.88
2018-02-11T08:21:03.644Z,3.21
2018-02-11T08:22:03.362Z,3.81
2018-02-11T08:23:03.743Z,4.35
2018-02-11T08:24:03.762Z,5.06
2018-02-11T08:25:03.769Z,5.87
2018-02-11T08:26:03.942Z,6.43
2018-02-11T08:27:03.453Z,6.91
2018-02-11T08:28:04.042Z,6.98
2018-02-11T08:29:04.201Z,6.75
2018-02-11T08:30:03.956Z,6.28
2018-02-11T08:31:04.822Z,5.7
2018-02-11T08:32:04.834Z,5.3
2018-02-11T08:33:04.282Z,4.84
2018-02-11T08:34:04.378Z,4.54
2018-02-11T08:35:04.341Z,4.24
2018-02-11T08:36:04.655Z,4.14
2018-02-11T08:37:04.335Z,3.96
2018-02-11T08:38:04.645Z,3.94
2018-02-11T08:39:04.886Z,3.93
2018-02-11T08:40:04.707Z,3.89
2018-02-11T08:41:04.941Z,3.92
2018-02-11T08:42:05.452Z,3.9
2018-02-11T08:43:05.737Z,3.89
2018-02-11T08:44:05.004Z,3.99
2018-02-11T08:45:05.437Z,3.96
2018-02-11T08:46:05.426Z,3.97
2018-02-11T08:47:05.841Z,4.1
2018-02-11T08:48:05.897Z,4.15
2018-02-11T08:49:05.679Z,4.14
2018-02-11T08:50:06.725Z,4.21
2018-02-11T08:51:06.850Z,4.33
2018-02-11T08:52:06.913Z,4.46
2018-02-11T08:53:07.789Z,4.56
2018-02-11T08:54:07.200Z,4.46
2018-02-11T08:55:07.353Z,4.48
2018-02-11T08:56:07.301Z,4.33
2018-02-11T08:57:07.290Z,4.33
2018-02-11T08:58:07.331Z,4.33
2018-02-11T08:59:07.572Z,4.29
2018-02-11T09:01:07.626Z,4.24
2018-02-11T09:02:07.822Z,4.36
2018-02-11T09:03:07.878Z,4.56
2018-02-11T09:04:07.952Z,4.72
2018-02-11T09:05:07.911Z,5.09
2018-02-11T09:06:08.323Z,5.62
2018-02-11T09:07:08.957Z,6.1
2018-02-11T09:08:08.815Z,6.62
2018-02-11T09:09:09.053Z,7.18
2018-02-11T09:10:09.075Z,7.55
2018-02-11T09:11:08.998Z,7.98
2018-02-11T09:12:08.899Z,8.31
2018-02-11T09:13:09.457Z,8.35
2018-02-11T09:14:09.057Z,8.5
2018-02-11T09:15:09.604Z,8.22
2018-02-11T09:16:09.297Z,7.77
2018-02-11T09:17:09.088Z,7.55
2018-02-11T09:18:09.626Z,7.27
2018-02-11T09:19:09.635Z,6.97
2018-02-11T09:20:10.039Z,6.7
2018-02-11T09:21:10.752Z,6.43
2018-02-11T09:22:10.473Z,6.18
2018-02-11T09:23:10.995Z,5.91
2018-02-11T09:24:11.154Z,5.75
2018-02-11T09:25:11.253Z,5.66
2018-02-11T09:26:11.553Z,5.52
2018-02-11T09:27:10.984Z,5.46
2018-02-11T09:28:11.924Z,5.36
2018-02-11T09:29:11.658Z,5.28
2018-02-11T09:30:12.216Z,5.06
2018-02-11T09:31:12.771Z,4.87
2018-02-11T09:32:12.421Z,4.85
2018-02-11T09:33:12.721Z,4.72
2018-02-11T09:34:13.031Z,4.88
2018-02-11T09:35:13.644Z,4.79
2018-02-11T09:36:13.550Z,4.71
2018-02-11T09:37:13.575Z,4.61
2018-02-11T09:38:14.057Z,4.58
2018-02-11T09:39:14.123Z,4.61
2018-02-11T09:40:14.098Z,4.57
2018-02-11T09:41:14.291Z,4.58
2018-02-11T09:42:13.822Z,4.51
2018-02-11T09:43:14.461Z,4.46
2018-02-11T09:44:14.079Z,4.46
2018-02-11T09:45:14.809Z,4.48
2018-02-11T09:46:14.763Z,4.46
2018-02-11T09:47:14.648Z,4.44
2018-02-11T09:48:14.647Z,4.38
2018-02-11T09:49:15.001Z,4.51
2018-02-11T09:50:15.511Z,4.54
2018-02-11T09:51:15.453Z,4.58
2018-02-11T09:52:15.555Z,4.66
2018-02-11T09:53:15.789Z,4.66
2018-02-11T09:54:15.686Z,4.71
2018-02-11T09:55:16.190Z,4.84
2018-02-11T09:56:16.362Z,5.06
2018-02-11T09:57:16.765Z,5.59
2018-02-11T09:58:16.555Z,6.09
2018-02-11T09:59:16.980Z,6.75
2018-02-11T10:01:17.310Z,7.77
2018-02-11T10:02:32.321Z,7.83
2018-02-11T10:03:17.106Z,7.63
2018-02-11T10:04:17.795Z,7.48
2018-02-11T10:05:17.435Z,7.3
2018-02-11T10:06:17.400Z,7.08
2018-02-11T10:07:17.309Z,7.03
2018-02-11T10:08:17.597Z,6.9
2018-02-11T10:09:18.046Z,6.79
2018-02-11T10:10:17.984Z,6.68
2018-02-11T10:11:18.137Z,6.6
2018-02-11T10:12:18.243Z,6.55
2018-02-11T10:13:18.376Z,6.46
2018-02-11T10:14:18.816Z,6.17
2018-02-11T10:15:18.583Z,6.18
2018-02-11T10:16:18.703Z,6.07
2018-02-11T10:17:18.760Z,5.89
2018-02-11T10:18:18.634Z,5.84
2018-02-11T10:19:18.930Z,5.7
2018-02-11T10:20:19.278Z,5.73
2018-02-11T10:21:19.654Z,5.8
2018-02-11T10:22:19.358Z,5.72
2018-02-11T10:23:19.478Z,5.78
2018-02-11T10:24:19.867Z,5.85
2018-02-11T10:25:19.959Z,6.07
2018-02-11T10:26:20.171Z,6.06
2018-02-11T10:27:20.410Z,5.99
2018-02-11T10:28:20.423Z,5.99
2018-02-11T10:29:22.048Z,5.91
2018-02-11T10:30:21.229Z,5.85
2018-02-11T10:31:21.125Z,5.88
2018-02-11T10:32:21.240Z,5.77
2018-02-11T10:33:21.345Z,5.77
2018-02-11T10:34:21.478Z,5.8
2018-02-11T10:35:21.753Z,5.8
2018-02-11T10:36:21.793Z,5.88
2018-02-11T10:37:22.194Z,5.92
2018-02-11T10:38:22.810Z,5.91
2018-02-11T10:39:23.252Z,5.98
2018-02-11T10:40:23.691Z,5.92
2018-02-11T10:41:23.997Z,5.84
2018-02-11T10:42:23.926Z,5.7
2018-02-11T10:43:24.415Z,5.67
2018-02-11T10:44:24.372Z,5.57
2018-02-11T10:45:24.164Z,5.51
2018-02-11T10:46:24.310Z,5.31
2018-02-11T10:47:24.685Z,5.16
2018-02-11T10:48:25.329Z,5.09
2018-02-11T10:49:25.709Z,4.92
2018-02-11T10:50:25.787Z,4.87
2018-02-11T10:51:25.759Z,4.84
2018-02-11T10:52:25.530Z,4.92
2018-02-11T10:53:25.832Z,4.71
2018-02-11T10:54:26.057Z,4.83
2018-02-11T10:55:25.984Z,4.78
2018-02-11T10:56:25.945Z,4.88
2018-02-11T10:57:26.617Z,4.79
2018-02-11T10:58:26.361Z,4.83
2018-02-11T10:59:26.987Z,4.87
2018-02-11T11:00:26.761Z,4.87
2018-02-11T11:01:26.763Z,4.94
2018-02-11T11:02:26.988Z,5.03
2018-02-11T11:03:27.408Z,5.02
2018-02-11T11:04:27.948Z,5.1
2018-02-11T11:05:27.629Z,5.13
2018-02-11T11:06:28.259Z,5.24
2018-02-11T11:07:28.005Z,5.33
2018-02-11T11:08:27.972Z,5.37
2018-02-11T11:09:28.370Z,5.41
2018-02-11T11:10:28.563Z,5.45
2018-02-11T11:11:29.194Z,5.41
2018-02-11T11:12:28.341Z,5.41
2018-02-11T11:13:28.632Z,5.44
2018-02-11T11:14:29.466Z,5.45
2018-02-11T11:15:28.943Z,5.51
2018-02-11T11:16:29.361Z,5.54
2018-02-11T11:17:29.409Z,5.6
2018-02-11T11:18:29.641Z,5.63
2018-02-11T11:19:29.388Z,5.59
2018-02-11T11:20:29.999Z,5.63
2018-02-11T11:21:30.135Z,5.63
2018-02-11T11:22:30.352Z,5.54
2018-02-11T11:23:30.332Z,5.48
2018-02-11T11:24:30.558Z,5.48
2018-02-11T11:25:29.964Z,5.51
2018-02-11T11:26:30.810Z,5.48
2018-02-11T11:27:30.978Z,5.48
2018-02-11T11:28:30.963Z,5.54
2018-02-11T11:29:31.416Z,5.45
2018-02-11T11:30:31.270Z,5.51
2018-02-11T11:31:31.501Z,5.49
2018-02-11T11:32:31.418Z,5.31
2018-02-11T11:33:31.521Z,5.28
2018-02-11T11:34:31.810Z,5.23
2018-02-11T11:35:31.917Z,5.21
2018-02-11T11:36:32.027Z,5.24
2018-02-11T11:37:32.982Z,5.24
2018-02-11T11:38:32.946Z,5.26
2018-02-11T11:39:32.426Z,5.24
2018-02-11T11:40:32.589Z,5.1
2018-02-11T11:41:32.013Z,5.16
2018-02-11T11:42:32.708Z,5.05
2018-02-11T11:43:32.930Z,5.05
2018-02-11T11:44:33.160Z,5.08
2018-02-11T11:45:33.137Z,5
2018-02-11T11:46:33.058Z,5
2018-02-11T11:47:32.617Z,4.97
2018-02-11T11:48:32.833Z,4.95
2018-02-11T11:49:32.552Z,4.92
2018-02-11T11:50:32.959Z,4.91
2018-02-11T11:51:33.121Z,4.97
2018-02-11T11:52:33.358Z,4.91
2018-02-11T11:53:33.296Z,4.98
2018-02-11T11:54:33.895Z,5.08
2018-02-11T11:55:33.742Z,5.06
2018-02-11T11:56:33.871Z,5.02
2018-02-11T11:57:33.849Z,4.97
2018-02-11T11:58:34.132Z,5.05
2018-02-11T11:59:34.073Z,5.08
2018-02-11T12:00:34.853Z,5.06
2018-02-11T12:01:34.260Z,5.05
2018-02-11T12:02:34.295Z,5.03
2018-02-11T12:03:34.822Z,5.09
2018-02-11T12:04:34.460Z,5.1
2018-02-11T12:05:35.199Z,5.03
2018-02-11T12:06:35.336Z,5.08
2018-02-11T12:07:35.281Z,5.15
2018-02-11T12:08:35.326Z,5.03
2018-02-11T12:09:35.708Z,4.97
2018-02-11T12:10:35.237Z,4.85
2018-02-11T12:11:35.664Z,4.75
2018-02-11T12:12:36.109Z,4.74
2018-02-11T12:13:36.209Z,4.79
2018-02-11T12:14:35.580Z,4.78
2018-02-11T12:15:36.368Z,4.78
2018-02-11T12:16:36.064Z,4.57
2018-02-11T12:17:35.899Z,4.46
2018-02-11T12:18:36.613Z,4.36
2018-02-11T12:19:36.405Z,4.3
2018-02-11T12:20:36.378Z,4.21
2018-02-11T12:21:36.841Z,4.18
2018-02-11T12:22:37.279Z,4.04
2018-02-11T12:23:37.022Z,4.11
2018-02-11T12:24:37.152Z,4.08
2018-02-11T12:25:38.852Z,3.94
2018-02-11T12:26:38.079Z,4.02
2018-02-11T12:27:38.600Z,3.96
2018-02-11T12:28:38.021Z,3.94
2018-02-11T12:29:38.060Z,3.97
2018-02-11T12:30:38.362Z,3.94
2018-02-11T12:31:38.091Z,3.94
2018-02-11T12:32:38.262Z,3.93
2018-02-11T12:33:38.954Z,3.92
2018-02-11T12:34:38.858Z,3.89
2018-02-11T12:35:38.518Z,3.86
2018-02-11T12:36:38.822Z,3.82
2018-02-11T12:37:39.288Z,3.78
2018-02-11T12:38:39.647Z,3.84
2018-02-11T12:39:39.437Z,3.9
2018-02-11T12:40:39.415Z,3.9
2018-02-11T12:41:39.181Z,3.76
2018-02-11T12:42:39.486Z,3.86
2018-02-11T12:43:39.324Z,3.81
2018-02-11T12:44:39.303Z,3.74
2018-02-11T12:45:39.633Z,3.72
2018-02-11T12:46:39.631Z,3.72
2018-02-11T12:47:40.284Z,3.64
2018-02-11T12:48:40.440Z,3.66
2018-02-11T12:49:40.468Z,3.57
2018-02-11T12:50:40.734Z,3.63
2018-02-11T12:51:40.485Z,3.64
2018-02-11T12:52:40.404Z,3.69
2018-02-11T12:53:41.611Z,3.71
2018-02-11T12:54:40.947Z,3.72
2018-02-11T12:55:40.947Z,3.58
2018-02-11T12:56:41.711Z,3.64
2018-02-11T12:57:42.399Z,3.63
2018-02-11T12:58:42.394Z,3.51
2018-02-11T12:59:42.652Z,3.49
2018-02-11T13:00:43.202Z,3.6
2018-02-11T13:01:43.694Z,3.57
2018-02-11T13:02:42.442Z,3.64
2018-02-11T13:03:43.245Z,3.61
2018-02-11T13:04:43.186Z,3.71
2018-02-11T13:05:43.362Z,3.64
2018-02-11T13:06:43.834Z,3.63
2018-02-11T13:07:43.908Z,3.69
2018-02-11T13:08:44.026Z,3.63
2018-02-11T13:09:43.763Z,3.6
2018-02-11T13:10:43.785Z,3.71
2018-02-11T13:11:43.500Z,3.67
2018-02-11T13:12:44.101Z,3.54
2018-02-11T13:13:44.375Z,3.46
2018-02-11T13:14:43.893Z,3.57
2018-02-11T13:15:44.277Z,3.57
2018-02-11T13:16:44.031Z,3.49
2018-02-11T13:17:44.294Z,3.56
2018-02-11T13:18:44.695Z,3.48
2018-02-11T13:19:44.719Z,3.46
2018-02-11T13:20:44.485Z,3.45
2018-02-11T13:21:44.747Z,3.51
2018-02-11T13:22:44.976Z,3.42
2018-02-11T13:23:44.941Z,3.42
2018-02-11T13:24:44.979Z,3.39
2018-02-11T13:25:45.106Z,3.39
2018-02-11T13:26:45.491Z,3.37